sensor_id;sensor_type;location;lat;lon;timestamp;P1;durP1;ratioP1;P2;durP2;ratioP2
55784;SDS011;41709;52.536;5.688;2024-01-07T00:01:26;17.08;;;11.77;;
55784;SDS011;41709;52.536;5.688;2024-01-07T00:03:51;17.50;;;11.27;;
55784;SDS011;41709;52.536;5.688;2024-01-07T00:06:17;17.23;;;11.48;;
55784;SDS011;41709;52.536;5.688;2024-01-07T00:08:43;15.90;;;10.90;;
55784;SDS011;41709;52.536;5.688;2024-01-07T00:11:08;15.85;;;11.15;;
55784;SDS011;41709;52.536;5.688;2024-01-07T00:13:34;19.00;;;12.60;;
55784;SDS011;41709;52.536;5.688;2024-01-07T00:16:00;19.20;;;12.77;;
55784;SDS011;41709;52.536;5.688;2024-01-07T00:18:26;19.75;;;12.10;;
55784;SDS011;41709;52.536;5.688;2024-01-07T00:20:52;18.98;;;12.35;;
55784;SDS011;41709;52.536;5.688;2024-01-07T00:23:18;16.45;;;11.05;;
55784;SDS011;41709;52.536;5.688;2024-01-07T00:25:45;16.77;;;11.65;;
55784;SDS011;41709;52.536;5.688;2024-01-07T00:28:11;18.10;;;12.63;;
55784;SDS011;41709;52.536;5.688;2024-01-07T00:30:37;18.63;;;11.90;;
55784;SDS011;41709;52.536;5.688;2024-01-07T00:33:03;17.17;;;11.60;;
55784;SDS011;41709;52.536;5.688;2024-01-07T00:35:28;19.05;;;12.80;;
55784;SDS011;41709;52.536;5.688;2024-01-07T00:37:54;19.02;;;12.05;;
55784;SDS011;41709;52.536;5.688;2024-01-07T00:40:21;16.67;;;11.18;;
55784;SDS011;41709;52.536;5.688;2024-01-07T00:42:47;19.88;;;12.70;;
55784;SDS011;41709;52.536;5.688;2024-01-07T00:45:13;17.27;;;12.15;;
55784;SDS011;41709;52.536;5.688;2024-01-07T00:47:38;17.02;;;12.32;;
55784;SDS011;41709;52.536;5.688;2024-01-07T00:50:04;17.55;;;12.10;;
55784;SDS011;41709;52.536;5.688;2024-01-07T00:52:30;18.27;;;12.23;;
55784;SDS011;41709;52.536;5.688;2024-01-07T00:54:55;17.30;;;11.90;;
55784;SDS011;41709;52.536;5.688;2024-01-07T00:57:21;20.65;;;12.05;;
55784;SDS011;41709;52.536;5.688;2024-01-07T00:59:47;18.27;;;11.70;;
55784;SDS011;41709;52.536;5.688;2024-01-07T01:02:13;19.67;;;12.55;;
55784;SDS011;41709;52.536;5.688;2024-01-07T01:04:39;21.27;;;13.43;;
55784;SDS011;41709;52.536;5.688;2024-01-07T01:07:07;20.48;;;12.68;;
55784;SDS011;41709;52.536;5.688;2024-01-07T01:09:33;19.92;;;13.43;;
55784;SDS011;41709;52.536;5.688;2024-01-07T01:11:59;21.35;;;12.93;;
55784;SDS011;41709;52.536;5.688;2024-01-07T01:14:24;20.38;;;12.52;;
55784;SDS011;41709;52.536;5.688;2024-01-07T01:16:50;18.13;;;12.10;;
55784;SDS011;41709;52.536;5.688;2024-01-07T01:19:15;18.85;;;13.05;;
55784;SDS011;41709;52.536;5.688;2024-01-07T01:21:42;18.02;;;12.32;;
55784;SDS011;41709;52.536;5.688;2024-01-07T01:24:07;18.00;;;12.07;;
55784;SDS011;41709;52.536;5.688;2024-01-07T01:26:33;18.45;;;12.18;;
55784;SDS011;41709;52.536;5.688;2024-01-07T01:28:58;18.90;;;12.05;;
55784;SDS011;41709;52.536;5.688;2024-01-07T01:31:24;17.50;;;11.63;;
55784;SDS011;41709;52.536;5.688;2024-01-07T01:33:49;18.35;;;12.35;;
55784;SDS011;41709;52.536;5.688;2024-01-07T01:36:15;18.55;;;12.52;;
55784;SDS011;41709;52.536;5.688;2024-01-07T01:38:40;20.08;;;11.88;;
55784;SDS011;41709;52.536;5.688;2024-01-07T01:41:06;16.98;;;11.40;;
55784;SDS011;41709;52.536;5.688;2024-01-07T01:43:31;19.63;;;13.13;;
55784;SDS011;41709;52.536;5.688;2024-01-07T01:45:57;18.58;;;11.68;;
55784;SDS011;41709;52.536;5.688;2024-01-07T01:48:24;19.30;;;11.98;;
55784;SDS011;41709;52.536;5.688;2024-01-07T01:50:51;16.20;;;11.45;;
55784;SDS011;41709;52.536;5.688;2024-01-07T01:53:19;16.38;;;11.23;;
55784;SDS011;41709;52.536;5.688;2024-01-07T01:55:44;18.85;;;11.60;;
55784;SDS011;41709;52.536;5.688;2024-01-07T01:58:10;18.83;;;11.63;;
55784;SDS011;41709;52.536;5.688;2024-01-07T02:00:38;18.52;;;11.63;;
55784;SDS011;41709;52.536;5.688;2024-01-07T02:03:05;18.88;;;11.88;;
55784;SDS011;41709;52.536;5.688;2024-01-07T02:05:30;16.35;;;11.68;;
55784;SDS011;41709;52.536;5.688;2024-01-07T02:07:56;16.30;;;10.75;;
55784;SDS011;41709;52.536;5.688;2024-01-07T02:10:23;16.88;;;11.15;;
55784;SDS011;41709;52.536;5.688;2024-01-07T02:12:49;18.08;;;11.23;;
55784;SDS011;41709;52.536;5.688;2024-01-07T02:15:15;19.40;;;11.63;;
55784;SDS011;41709;52.536;5.688;2024-01-07T02:17:40;17.80;;;12.13;;
55784;SDS011;41709;52.536;5.688;2024-01-07T02:20:06;19.52;;;13.30;;
55784;SDS011;41709;52.536;5.688;2024-01-07T02:22:32;18.95;;;12.02;;
55784;SDS011;41709;52.536;5.688;2024-01-07T02:24:58;17.40;;;12.40;;
55784;SDS011;41709;52.536;5.688;2024-01-07T02:27:23;20.55;;;12.18;;
55784;SDS011;41709;52.536;5.688;2024-01-07T02:29:49;20.38;;;11.45;;
55784;SDS011;41709;52.536;5.688;2024-01-07T02:32:14;19.00;;;11.38;;
55784;SDS011;41709;52.536;5.688;2024-01-07T02:34:40;18.48;;;12.40;;
55784;SDS011;41709;52.536;5.688;2024-01-07T02:37:05;19.67;;;11.88;;
55784;SDS011;41709;52.536;5.688;2024-01-07T02:39:31;16.70;;;11.82;;
55784;SDS011;41709;52.536;5.688;2024-01-07T02:41:56;20.30;;;10.95;;
55784;SDS011;41709;52.536;5.688;2024-01-07T02:44:22;18.67;;;12.18;;
55784;SDS011;41709;52.536;5.688;2024-01-07T02:46:47;19.50;;;11.75;;
55784;SDS011;41709;52.536;5.688;2024-01-07T02:49:13;16.98;;;12.00;;
55784;SDS011;41709;52.536;5.688;2024-01-07T02:51:39;19.13;;;11.60;;
55784;SDS011;41709;52.536;5.688;2024-01-07T02:54:04;21.60;;;12.73;;
55784;SDS011;41709;52.536;5.688;2024-01-07T02:56:30;20.20;;;11.63;;
55784;SDS011;41709;52.536;5.688;2024-01-07T02:58:56;17.67;;;11.60;;
55784;SDS011;41709;52.536;5.688;2024-01-07T03:01:22;18.05;;;11.93;;
55784;SDS011;41709;52.536;5.688;2024-01-07T03:03:48;18.67;;;11.75;;
55784;SDS011;41709;52.536;5.688;2024-01-07T03:06:14;16.58;;;11.15;;
55784;SDS011;41709;52.536;5.688;2024-01-07T03:08:39;18.42;;;12.30;;
55784;SDS011;41709;52.536;5.688;2024-01-07T03:11:05;19.52;;;12.48;;
55784;SDS011;41709;52.536;5.688;2024-01-07T03:13:31;19.02;;;12.32;;
55784;SDS011;41709;52.536;5.688;2024-01-07T03:15:57;16.83;;;11.73;;
55784;SDS011;41709;52.536;5.688;2024-01-07T03:18:23;18.27;;;11.27;;
55784;SDS011;41709;52.536;5.688;2024-01-07T03:20:48;18.50;;;12.50;;
55784;SDS011;41709;52.536;5.688;2024-01-07T03:23:14;16.42;;;11.63;;
55784;SDS011;41709;52.536;5.688;2024-01-07T03:25:39;19.50;;;12.98;;
55784;SDS011;41709;52.536;5.688;2024-01-07T03:28:05;20.90;;;12.82;;
55784;SDS011;41709;52.536;5.688;2024-01-07T03:30:30;16.83;;;12.40;;
55784;SDS011;41709;52.536;5.688;2024-01-07T03:32:56;17.67;;;12.70;;
55784;SDS011;41709;52.536;5.688;2024-01-07T03:35:21;18.98;;;12.05;;
55784;SDS011;41709;52.536;5.688;2024-01-07T03:37:49;18.40;;;11.40;;
55784;SDS011;41709;52.536;5.688;2024-01-07T03:40:14;15.75;;;11.55;;
55784;SDS011;41709;52.536;5.688;2024-01-07T03:42:40;19.30;;;12.52;;
55784;SDS011;41709;52.536;5.688;2024-01-07T03:45:06;16.92;;;11.73;;
55784;SDS011;41709;52.536;5.688;2024-01-07T03:47:32;14.57;;;10.88;;
55784;SDS011;41709;52.536;5.688;2024-01-07T03:49:57;18.75;;;10.77;;
55784;SDS011;41709;52.536;5.688;2024-01-07T03:52:23;19.30;;;12.13;;
55784;SDS011;41709;52.536;5.688;2024-01-07T03:54:49;16.90;;;11.75;;
55784;SDS011;41709;52.536;5.688;2024-01-07T03:57:14;16.58;;;11.23;;
55784;SDS011;41709;52.536;5.688;2024-01-07T03:59:40;17.13;;;11.43;;
55784;SDS011;41709;52.536;5.688;2024-01-07T04:02:05;15.90;;;11.07;;
55784;SDS011;41709;52.536;5.688;2024-01-07T04:04:31;17.65;;;11.52;;
55784;SDS011;41709;52.536;5.688;2024-01-07T04:06:57;14.80;;;10.93;;
55784;SDS011;41709;52.536;5.688;2024-01-07T04:09:22;15.13;;;10.20;;
55784;SDS011;41709;52.536;5.688;2024-01-07T04:11:48;20.85;;;11.25;;
55784;SDS011;41709;52.536;5.688;2024-01-07T04:14:14;15.98;;;10.80;;
55784;SDS011;41709;52.536;5.688;2024-01-07T04:16:40;14.43;;;10.32;;
55784;SDS011;41709;52.536;5.688;2024-01-07T04:19:05;17.45;;;10.75;;
55784;SDS011;41709;52.536;5.688;2024-01-07T04:21:31;18.25;;;11.45;;
55784;SDS011;41709;52.536;5.688;2024-01-07T04:23:57;16.20;;;10.88;;
55784;SDS011;41709;52.536;5.688;2024-01-07T04:26:22;14.32;;;9.88;;
55784;SDS011;41709;52.536;5.688;2024-01-07T04:28:48;18.25;;;11.00;;
55784;SDS011;41709;52.536;5.688;2024-01-07T04:31:13;15.23;;;10.45;;
55784;SDS011;41709;52.536;5.688;2024-01-07T04:33:39;15.60;;;10.43;;
55784;SDS011;41709;52.536;5.688;2024-01-07T04:36:05;17.95;;;11.00;;
55784;SDS011;41709;52.536;5.688;2024-01-07T04:38:30;17.23;;;10.65;;
55784;SDS011;41709;52.536;5.688;2024-01-07T04:40:56;17.08;;;11.32;;
55784;SDS011;41709;52.536;5.688;2024-01-07T04:43:21;14.27;;;9.50;;
55784;SDS011;41709;52.536;5.688;2024-01-07T04:45:47;16.35;;;9.85;;
55784;SDS011;41709;52.536;5.688;2024-01-07T04:48:13;15.40;;;10.88;;
55784;SDS011;41709;52.536;5.688;2024-01-07T04:50:41;15.52;;;10.70;;
55784;SDS011;41709;52.536;5.688;2024-01-07T04:53:07;16.83;;;10.25;;
55784;SDS011;41709;52.536;5.688;2024-01-07T04:55:33;19.85;;;11.18;;
55784;SDS011;41709;52.536;5.688;2024-01-07T04:57:59;14.27;;;9.70;;
55784;SDS011;41709;52.536;5.688;2024-01-07T05:00:24;14.48;;;9.88;;
55784;SDS011;41709;52.536;5.688;2024-01-07T05:02:50;13.25;;;9.43;;
55784;SDS011;41709;52.536;5.688;2024-01-07T05:05:15;13.27;;;9.15;;
55784;SDS011;41709;52.536;5.688;2024-01-07T05:07:41;15.07;;;8.95;;
55784;SDS011;41709;52.536;5.688;2024-01-07T05:10:07;15.45;;;7.70;;
55784;SDS011;41709;52.536;5.688;2024-01-07T05:12:32;12.40;;;8.35;;
55784;SDS011;41709;52.536;5.688;2024-01-07T05:14:58;13.48;;;8.23;;
55784;SDS011;41709;52.536;5.688;2024-01-07T05:17:24;12.52;;;8.18;;
55784;SDS011;41709;52.536;5.688;2024-01-07T05:19:49;12.00;;;8.15;;
55784;SDS011;41709;52.536;5.688;2024-01-07T05:22:15;11.82;;;8.15;;
55784;SDS011;41709;52.536;5.688;2024-01-07T05:24:40;13.43;;;8.30;;
55784;SDS011;41709;52.536;5.688;2024-01-07T05:27:06;13.63;;;9.10;;
55784;SDS011;41709;52.536;5.688;2024-01-07T05:29:32;12.77;;;8.48;;
55784;SDS011;41709;52.536;5.688;2024-01-07T05:32:00;11.55;;;8.02;;
55784;SDS011;41709;52.536;5.688;2024-01-07T05:34:27;15.88;;;8.75;;
55784;SDS011;41709;52.536;5.688;2024-01-07T05:36:53;13.32;;;8.32;;
55784;SDS011;41709;52.536;5.688;2024-01-07T05:39:19;13.23;;;8.25;;
55784;SDS011;41709;52.536;5.688;2024-01-07T05:41:44;16.27;;;7.78;;
55784;SDS011;41709;52.536;5.688;2024-01-07T05:44:11;12.48;;;7.95;;
55784;SDS011;41709;52.536;5.688;2024-01-07T05:46:40;11.48;;;7.43;;
55784;SDS011;41709;52.536;5.688;2024-01-07T05:49:05;10.90;;;8.05;;
55784;SDS011;41709;52.536;5.688;2024-01-07T05:51:31;14.07;;;7.93;;
55784;SDS011;41709;52.536;5.688;2024-01-07T05:53:57;13.13;;;8.07;;
55784;SDS011;41709;52.536;5.688;2024-01-07T05:56:23;12.30;;;6.88;;
55784;SDS011;41709;52.536;5.688;2024-01-07T05:58:48;13.68;;;7.53;;
55784;SDS011;41709;52.536;5.688;2024-01-07T06:01:18;13.30;;;7.53;;
55784;SDS011;41709;52.536;5.688;2024-01-07T06:03:45;10.65;;;6.75;;
55784;SDS011;41709;52.536;5.688;2024-01-07T06:06:12;11.63;;;7.20;;
55784;SDS011;41709;52.536;5.688;2024-01-07T06:08:39;10.55;;;7.13;;
55784;SDS011;41709;52.536;5.688;2024-01-07T06:11:08;11.82;;;7.07;;
55784;SDS011;41709;52.536;5.688;2024-01-07T06:13:34;10.18;;;6.88;;
55784;SDS011;41709;52.536;5.688;2024-01-07T06:16:00;9.07;;;6.88;;
55784;SDS011;41709;52.536;5.688;2024-01-07T06:18:25;8.38;;;6.30;;
55784;SDS011;41709;52.536;5.688;2024-01-07T06:20:51;10.38;;;7.20;;
55784;SDS011;41709;52.536;5.688;2024-01-07T06:23:16;11.77;;;7.63;;
55784;SDS011;41709;52.536;5.688;2024-01-07T06:25:42;11.10;;;7.05;;
55784;SDS011;41709;52.536;5.688;2024-01-07T06:28:08;7.88;;;5.70;;
55784;SDS011;41709;52.536;5.688;2024-01-07T06:30:35;11.05;;;5.90;;
55784;SDS011;41709;52.536;5.688;2024-01-07T06:33:00;10.18;;;6.90;;
55784;SDS011;41709;52.536;5.688;2024-01-07T06:35:26;8.73;;;6.00;;
55784;SDS011;41709;52.536;5.688;2024-01-07T06:37:52;7.25;;;5.60;;
55784;SDS011;41709;52.536;5.688;2024-01-07T06:40:18;8.48;;;5.57;;
55784;SDS011;41709;52.536;5.688;2024-01-07T06:42:44;8.43;;;5.20;;
55784;SDS011;41709;52.536;5.688;2024-01-07T06:45:10;8.98;;;5.50;;
55784;SDS011;41709;52.536;5.688;2024-01-07T06:47:36;8.63;;;4.85;;
55784;SDS011;41709;52.536;5.688;2024-01-07T06:50:01;10.27;;;5.20;;
55784;SDS011;41709;52.536;5.688;2024-01-07T06:52:27;8.95;;;5.22;;
55784;SDS011;41709;52.536;5.688;2024-01-07T06:54:52;6.70;;;4.35;;
55784;SDS011;41709;52.536;5.688;2024-01-07T06:57:18;8.35;;;5.10;;
55784;SDS011;41709;52.536;5.688;2024-01-07T06:59:43;7.82;;;4.93;;
55784;SDS011;41709;52.536;5.688;2024-01-07T07:02:09;8.50;;;5.30;;
55784;SDS011;41709;52.536;5.688;2024-01-07T07:04:35;9.55;;;5.28;;
55784;SDS011;41709;52.536;5.688;2024-01-07T07:07:00;12.05;;;5.47;;
55784;SDS011;41709;52.536;5.688;2024-01-07T07:09:26;8.02;;;4.45;;
55784;SDS011;41709;52.536;5.688;2024-01-07T07:11:52;10.32;;;5.40;;
55784;SDS011;41709;52.536;5.688;2024-01-07T07:14:17;8.68;;;5.13;;
55784;SDS011;41709;52.536;5.688;2024-01-07T07:16:43;7.60;;;4.57;;
55784;SDS011;41709;52.536;5.688;2024-01-07T07:19:08;5.90;;;3.33;;
55784;SDS011;41709;52.536;5.688;2024-01-07T07:21:39;6.82;;;4.20;;
55784;SDS011;41709;52.536;5.688;2024-01-07T07:24:05;6.05;;;3.35;;
55784;SDS011;41709;52.536;5.688;2024-01-07T07:26:30;9.90;;;3.80;;
55784;SDS011;41709;52.536;5.688;2024-01-07T07:28:56;6.25;;;3.83;;
55784;SDS011;41709;52.536;5.688;2024-01-07T07:31:22;4.82;;;3.08;;
55784;SDS011;41709;52.536;5.688;2024-01-07T07:33:47;4.10;;;2.70;;
55784;SDS011;41709;52.536;5.688;2024-01-07T07:36:14;4.93;;;3.17;;
55784;SDS011;41709;52.536;5.688;2024-01-07T07:38:40;6.57;;;3.25;;
55784;SDS011;41709;52.536;5.688;2024-01-07T07:41:05;7.82;;;3.85;;
55784;SDS011;41709;52.536;5.688;2024-01-07T07:43:32;6.22;;;3.72;;
55784;SDS011;41709;52.536;5.688;2024-01-07T07:45:58;4.70;;;3.20;;
55784;SDS011;41709;52.536;5.688;2024-01-07T07:48:25;5.45;;;3.35;;
55784;SDS011;41709;52.536;5.688;2024-01-07T07:50:51;5.63;;;3.30;;
55784;SDS011;41709;52.536;5.688;2024-01-07T07:53:16;6.18;;;3.00;;
55784;SDS011;41709;52.536;5.688;2024-01-07T07:55:43;4.38;;;3.10;;
55784;SDS011;41709;52.536;5.688;2024-01-07T07:58:09;5.00;;;3.50;;
55784;SDS011;41709;52.536;5.688;2024-01-07T08:00:34;5.55;;;3.05;;
55784;SDS011;41709;52.536;5.688;2024-01-07T08:03:00;4.20;;;2.80;;
55784;SDS011;41709;52.536;5.688;2024-01-07T08:05:26;4.97;;;3.35;;
55784;SDS011;41709;52.536;5.688;2024-01-07T08:07:51;5.45;;;3.05;;
55784;SDS011;41709;52.536;5.688;2024-01-07T08:10:17;5.15;;;2.75;;
55784;SDS011;41709;52.536;5.688;2024-01-07T08:12:42;3.08;;;2.47;;
55784;SDS011;41709;52.536;5.688;2024-01-07T08:15:08;7.38;;;3.03;;
55784;SDS011;41709;52.536;5.688;2024-01-07T08:17:34;5.20;;;2.28;;
55784;SDS011;41709;52.536;5.688;2024-01-07T08:19:59;4.75;;;2.10;;
55784;SDS011;41709;52.536;5.688;2024-01-07T08:22:26;5.47;;;2.65;;
55784;SDS011;41709;52.536;5.688;2024-01-07T08:24:51;5.88;;;2.15;;
55784;SDS011;41709;52.536;5.688;2024-01-07T08:27:18;3.45;;;2.28;;
55784;SDS011;41709;52.536;5.688;2024-01-07T08:29:44;5.22;;;2.50;;
55784;SDS011;41709;52.536;5.688;2024-01-07T08:32:09;6.70;;;3.03;;
55784;SDS011;41709;52.536;5.688;2024-01-07T08:34:35;4.72;;;2.15;;
55784;SDS011;41709;52.536;5.688;2024-01-07T08:37:01;5.05;;;2.35;;
55784;SDS011;41709;52.536;5.688;2024-01-07T08:39:26;5.32;;;3.08;;
55784;SDS011;41709;52.536;5.688;2024-01-07T08:41:53;2.55;;;1.98;;
55784;SDS011;41709;52.536;5.688;2024-01-07T08:44:19;2.97;;;2.03;;
55784;SDS011;41709;52.536;5.688;2024-01-07T08:46:45;2.30;;;1.77;;
55784;SDS011;41709;52.536;5.688;2024-01-07T08:49:10;4.68;;;2.38;;
55784;SDS011;41709;52.536;5.688;2024-01-07T08:51:36;4.30;;;1.85;;
55784;SDS011;41709;52.536;5.688;2024-01-07T08:54:03;3.05;;;2.15;;
55784;SDS011;41709;52.536;5.688;2024-01-07T08:56:28;4.65;;;2.40;;
55784;SDS011;41709;52.536;5.688;2024-01-07T08:58:54;4.45;;;2.28;;
55784;SDS011;41709;52.536;5.688;2024-01-07T09:01:19;3.70;;;2.05;;
55784;SDS011;41709;52.536;5.688;2024-01-07T09:03:45;4.55;;;2.42;;
55784;SDS011;41709;52.536;5.688;2024-01-07T09:06:11;3.10;;;2.10;;
55784;SDS011;41709;52.536;5.688;2024-01-07T09:08:36;3.03;;;2.15;;
55784;SDS011;41709;52.536;5.688;2024-01-07T09:11:05;2.58;;;1.83;;
55784;SDS011;41709;52.536;5.688;2024-01-07T09:13:31;3.58;;;2.05;;
55784;SDS011;41709;52.536;5.688;2024-01-07T09:15:57;4.50;;;2.15;;
55784;SDS011;41709;52.536;5.688;2024-01-07T09:18:23;6.45;;;1.85;;
55784;SDS011;41709;52.536;5.688;2024-01-07T09:20:48;4.75;;;2.00;;
55784;SDS011;41709;52.536;5.688;2024-01-07T09:23:14;3.85;;;1.83;;
55784;SDS011;41709;52.536;5.688;2024-01-07T09:25:40;2.55;;;1.75;;
55784;SDS011;41709;52.536;5.688;2024-01-07T09:28:06;4.57;;;1.73;;
55784;SDS011;41709;52.536;5.688;2024-01-07T09:30:32;6.25;;;2.00;;
55784;SDS011;41709;52.536;5.688;2024-01-07T09:32:58;3.35;;;1.88;;
55784;SDS011;41709;52.536;5.688;2024-01-07T09:35:23;3.47;;;1.98;;
55784;SDS011;41709;52.536;5.688;2024-01-07T09:37:49;2.70;;;1.77;;
55784;SDS011;41709;52.536;5.688;2024-01-07T09:40:17;4.47;;;2.38;;
55784;SDS011;41709;52.536;5.688;2024-01-07T09:42:44;2.83;;;1.90;;
55784;SDS011;41709;52.536;5.688;2024-01-07T09:45:10;3.47;;;1.90;;
55784;SDS011;41709;52.536;5.688;2024-01-07T09:47:38;3.53;;;2.20;;
55784;SDS011;41709;52.536;5.688;2024-01-07T09:50:05;4.82;;;2.17;;
55784;SDS011;41709;52.536;5.688;2024-01-07T09:52:32;2.55;;;1.55;;
55784;SDS011;41709;52.536;5.688;2024-01-07T09:55:00;4.63;;;1.80;;
55784;SDS011;41709;52.536;5.688;2024-01-07T09:57:28;4.22;;;1.88;;
55784;SDS011;41709;52.536;5.688;2024-01-07T09:59:54;3.13;;;1.35;;
55784;SDS011;41709;52.536;5.688;2024-01-07T10:02:20;1.60;;;1.38;;
55784;SDS011;41709;52.536;5.688;2024-01-07T10:04:49;3.90;;;2.05;;
55784;SDS011;41709;52.536;5.688;2024-01-07T10:07:15;2.25;;;1.75;;
55784;SDS011;41709;52.536;5.688;2024-01-07T10:09:40;2.05;;;1.27;;
55784;SDS011;41709;52.536;5.688;2024-01-07T10:12:09;1.00;;;0.90;;
55784;SDS011;41709;52.536;5.688;2024-01-07T10:14:35;2.05;;;1.30;;
55784;SDS011;41709;52.536;5.688;2024-01-07T10:17:00;4.78;;;1.38;;
55784;SDS011;41709;52.536;5.688;2024-01-07T10:19:26;2.38;;;1.00;;
55784;SDS011;41709;52.536;5.688;2024-01-07T10:22:01;2.78;;;1.77;;
55784;SDS011;41709;52.536;5.688;2024-01-07T10:24:34;2.70;;;1.33;;
55784;SDS011;41709;52.536;5.688;2024-01-07T10:27:02;2.75;;;1.45;;
55784;SDS011;41709;52.536;5.688;2024-01-07T10:29:28;4.03;;;1.65;;
55784;SDS011;41709;52.536;5.688;2024-01-07T10:31:57;1.98;;;1.00;;
55784;SDS011;41709;52.536;5.688;2024-01-07T10:34:23;2.17;;;1.40;;
55784;SDS011;41709;52.536;5.688;2024-01-07T10:36:51;2.17;;;1.27;;
55784;SDS011;41709;52.536;5.688;2024-01-07T10:39:19;4.15;;;1.40;;
55784;SDS011;41709;52.536;5.688;2024-01-07T10:41:45;2.33;;;1.10;;
55784;SDS011;41709;52.536;5.688;2024-01-07T10:44:12;3.10;;;1.33;;
55784;SDS011;41709;52.536;5.688;2024-01-07T10:46:38;2.15;;;1.27;;
55784;SDS011;41709;52.536;5.688;2024-01-07T10:49:04;2.15;;;1.33;;
55784;SDS011;41709;52.536;5.688;2024-01-07T10:51:37;3.92;;;1.50;;
55784;SDS011;41709;52.536;5.688;2024-01-07T10:54:02;2.92;;;1.20;;
55784;SDS011;41709;52.536;5.688;2024-01-07T10:56:32;4.60;;;1.27;;
55784;SDS011;41709;52.536;5.688;2024-01-07T10:59:01;2.22;;;1.40;;
55784;SDS011;41709;52.536;5.688;2024-01-07T11:01:29;2.50;;;1.30;;
55784;SDS011;41709;52.536;5.688;2024-01-07T11:03:57;2.85;;;1.00;;
55784;SDS011;41709;52.536;5.688;2024-01-07T11:06:38;2.97;;;1.33;;
55784;SDS011;41709;52.536;5.688;2024-01-07T11:09:18;2.70;;;1.20;;
55784;SDS011;41709;52.536;5.688;2024-01-07T11:11:48;2.25;;;1.00;;
55784;SDS011;41709;52.536;5.688;2024-01-07T11:14:34;2.78;;;1.35;;
55784;SDS011;41709;52.536;5.688;2024-01-07T11:19:33;2.25;;;1.45;;
55784;SDS011;41709;52.536;5.688;2024-01-07T11:24:55;1.85;;;1.20;;
55784;SDS011;41709;52.536;5.688;2024-01-07T11:27:22;2.53;;;1.50;;
55784;SDS011;41709;52.536;5.688;2024-01-07T11:29:57;3.45;;;1.30;;
55784;SDS011;41709;52.536;5.688;2024-01-07T11:32:29;6.45;;;1.95;;
55784;SDS011;41709;52.536;5.688;2024-01-07T11:34:55;2.30;;;1.15;;
55784;SDS011;41709;52.536;5.688;2024-01-07T11:37:24;3.22;;;1.48;;
55784;SDS011;41709;52.536;5.688;2024-01-07T11:39:51;1.48;;;1.20;;
55784;SDS011;41709;52.536;5.688;2024-01-07T11:42:20;1.63;;;1.30;;
55784;SDS011;41709;52.536;5.688;2024-01-07T11:44:50;2.17;;;1.20;;
55784;SDS011;41709;52.536;5.688;2024-01-07T11:47:18;2.20;;;1.13;;
55784;SDS011;41709;52.536;5.688;2024-01-07T11:49:44;1.58;;;1.08;;
55784;SDS011;41709;52.536;5.688;2024-01-07T11:52:10;2.17;;;0.95;;
55784;SDS011;41709;52.536;5.688;2024-01-07T11:54:37;3.00;;;0.90;;
55784;SDS011;41709;52.536;5.688;2024-01-07T11:57:04;2.80;;;1.73;;
55784;SDS011;41709;52.536;5.688;2024-01-07T11:59:30;1.48;;;1.20;;
55784;SDS011;41709;52.536;5.688;2024-01-07T12:01:55;3.97;;;0.90;;
55784;SDS011;41709;52.536;5.688;2024-01-07T12:04:21;2.13;;;1.17;;
55784;SDS011;41709;52.536;5.688;2024-01-07T12:06:47;5.43;;;1.15;;
55784;SDS011;41709;52.536;5.688;2024-01-07T12:09:13;3.03;;;1.17;;
55784;SDS011;41709;52.536;5.688;2024-01-07T12:11:39;3.10;;;1.40;;
55784;SDS011;41709;52.536;5.688;2024-01-07T12:14:06;2.00;;;1.10;;
55784;SDS011;41709;52.536;5.688;2024-01-07T12:16:33;5.15;;;0.98;;
55784;SDS011;41709;52.536;5.688;2024-01-07T12:18:59;2.28;;;0.90;;
55784;SDS011;41709;52.536;5.688;2024-01-07T12:21:25;1.63;;;1.23;;
55784;SDS011;41709;52.536;5.688;2024-01-07T12:23:52;1.95;;;0.85;;
55784;SDS011;41709;52.536;5.688;2024-01-07T12:26:17;2.13;;;1.08;;
55784;SDS011;41709;52.536;5.688;2024-01-07T12:28:44;2.78;;;0.93;;
55784;SDS011;41709;52.536;5.688;2024-01-07T12:31:10;3.10;;;1.20;;
55784;SDS011;41709;52.536;5.688;2024-01-07T12:33:38;5.18;;;1.20;;
55784;SDS011;41709;52.536;5.688;2024-01-07T12:36:06;0.88;;;0.60;;
55784;SDS011;41709;52.536;5.688;2024-01-07T12:38:32;1.73;;;0.90;;
55784;SDS011;41709;52.536;5.688;2024-01-07T12:40:58;3.22;;;0.90;;
55784;SDS011;41709;52.536;5.688;2024-01-07T12:43:23;1.48;;;1.02;;
55784;SDS011;41709;52.536;5.688;2024-01-07T12:45:49;2.55;;;0.80;;
55784;SDS011;41709;52.536;5.688;2024-01-07T12:48:15;1.52;;;0.77;;
55784;SDS011;41709;52.536;5.688;2024-01-07T12:50:41;3.28;;;1.17;;
55784;SDS011;41709;52.536;5.688;2024-01-07T12:53:06;1.10;;;0.90;;
55784;SDS011;41709;52.536;5.688;2024-01-07T12:55:32;1.45;;;1.08;;
55784;SDS011;41709;52.536;5.688;2024-01-07T12:57:59;2.25;;;1.25;;
55784;SDS011;41709;52.536;5.688;2024-01-07T13:00:25;2.08;;;0.95;;
55784;SDS011;41709;52.536;5.688;2024-01-07T13:02:53;1.20;;;1.02;;
55784;SDS011;41709;52.536;5.688;2024-01-07T13:05:19;4.70;;;1.23;;
55784;SDS011;41709;52.536;5.688;2024-01-07T13:07:46;1.40;;;0.90;;
55784;SDS011;41709;52.536;5.688;2024-01-07T13:10:12;1.60;;;0.88;;
55784;SDS011;41709;52.536;5.688;2024-01-07T13:12:38;2.75;;;1.25;;
55784;SDS011;41709;52.536;5.688;2024-01-07T13:15:04;3.63;;;2.10;;
55784;SDS011;41709;52.536;5.688;2024-01-07T13:17:30;5.90;;;1.17;;
55784;SDS011;41709;52.536;5.688;2024-01-07T13:19:57;4.45;;;1.25;;
55784;SDS011;41709;52.536;5.688;2024-01-07T13:22:23;0.80;;;0.80;;
55784;SDS011;41709;52.536;5.688;2024-01-07T13:24:49;2.72;;;0.98;;
55784;SDS011;41709;52.536;5.688;2024-01-07T13:27:15;2.83;;;1.30;;
55784;SDS011;41709;52.536;5.688;2024-01-07T13:29:42;3.30;;;1.08;;
55784;SDS011;41709;52.536;5.688;2024-01-07T13:32:10;1.80;;;1.27;;
55784;SDS011;41709;52.536;5.688;2024-01-07T13:34:36;3.47;;;1.55;;
55784;SDS011;41709;52.536;5.688;2024-01-07T13:37:01;1.65;;;1.17;;
55784;SDS011;41709;52.536;5.688;2024-01-07T13:39:28;2.55;;;1.30;;
55784;SDS011;41709;52.536;5.688;2024-01-07T13:41:55;1.92;;;1.13;;
55784;SDS011;41709;52.536;5.688;2024-01-07T13:44:21;1.90;;;1.13;;
55784;SDS011;41709;52.536;5.688;2024-01-07T13:46:46;1.85;;;1.13;;
55784;SDS011;41709;52.536;5.688;2024-01-07T13:49:12;1.55;;;1.05;;
55784;SDS011;41709;52.536;5.688;2024-01-07T13:51:38;4.93;;;1.40;;
55784;SDS011;41709;52.536;5.688;2024-01-07T13:54:07;2.30;;;1.20;;
55784;SDS011;41709;52.536;5.688;2024-01-07T13:56:38;1.75;;;1.10;;
55784;SDS011;41709;52.536;5.688;2024-01-07T13:59:07;4.65;;;1.20;;
55784;SDS011;41709;52.536;5.688;2024-01-07T14:01:33;2.35;;;1.17;;
55784;SDS011;41709;52.536;5.688;2024-01-07T14:03:59;3.40;;;1.00;;
55784;SDS011;41709;52.536;5.688;2024-01-07T14:06:24;2.10;;;1.25;;
55784;SDS011;41709;52.536;5.688;2024-01-07T14:08:50;2.17;;;1.23;;
55784;SDS011;41709;52.536;5.688;2024-01-07T14:11:17;2.55;;;1.52;;
55784;SDS011;41709;52.536;5.688;2024-01-07T14:13:43;3.58;;;1.08;;
55784;SDS011;41709;52.536;5.688;2024-01-07T14:16:10;2.15;;;1.10;;
55784;SDS011;41709;52.536;5.688;2024-01-07T14:18:36;1.77;;;1.20;;
55784;SDS011;41709;52.536;5.688;2024-01-07T14:21:01;2.10;;;1.45;;
55784;SDS011;41709;52.536;5.688;2024-01-07T14:23:27;2.50;;;1.20;;
55784;SDS011;41709;52.536;5.688;2024-01-07T14:25:54;5.82;;;1.42;;
55784;SDS011;41709;52.536;5.688;2024-01-07T14:28:21;2.50;;;1.50;;
55784;SDS011;41709;52.536;5.688;2024-01-07T14:30:47;1.70;;;1.20;;
55784;SDS011;41709;52.536;5.688;2024-01-07T14:33:13;3.83;;;1.38;;
55784;SDS011;41709;52.536;5.688;2024-01-07T14:35:38;2.28;;;1.05;;
55784;SDS011;41709;52.536;5.688;2024-01-07T14:38:04;2.10;;;1.38;;